Diggs, Virginia
Current Conditions -  °F | °C
As of 5:55 PM on Thursday 23 Oct 2014 (Local Time) from KW75 Reporting Station
Overcast Overcast  
Wind Chill: 64°   Ceiling: 5000
Heat Index: 64°   Visibility: 10mi
Dew Point: 48°   Wind: 16mph
Humidity: 57%   Direction: 320°NW
Pressure: 29.85"   Gusts: 26mph
Location:  37.44°N, 76.27°W
Report Text: KW75 232155Z AUTO 32014G23KT 10SM OVC050 18/09 A2985 RMK AO1 T01750089
Loading
Personal Weather Stations






























Interactive Weather Map
Tropical Storm Tracking
New forecast layout! Learn more

10-Day Weather Forecast

Advertisements
Track Severe Weather on mobile